sensor_id;sensor_type;location;lat;lon;timestamp;P1;durP1;ratioP1;P2;durP2;ratioP2
7203;SDS011;3643;52.460;13.322;2023-03-02T00:01:35;23.53;;;10.40;;
7203;SDS011;3643;52.460;13.322;2023-03-02T00:04:08;16.83;;;9.77;;
7203;SDS011;3643;52.460;13.322;2023-03-02T00:06:43;19.40;;;10.23;;
7203;SDS011;3643;52.460;13.322;2023-03-02T00:09:11;17.57;;;10.13;;
7203;SDS011;3643;52.460;13.322;2023-03-02T00:11:40;17.37;;;10.10;;
7203;SDS011;3643;52.460;13.322;2023-03-02T00:14:08;19.73;;;10.03;;
7203;SDS011;3643;52.460;13.322;2023-03-02T00:16:37;17.57;;;9.33;;
7203;SDS011;3643;52.460;13.322;2023-03-02T00:19:06;17.20;;;9.90;;
7203;SDS011;3643;52.460;13.322;2023-03-02T00:21:34;16.30;;;9.43;;
7203;SDS011;3643;52.460;13.322;2023-03-02T00:24:04;24.97;;;10.33;;
7203;SDS011;3643;52.460;13.322;2023-03-02T00:26:34;19.70;;;9.70;;
7203;SDS011;3643;52.460;13.322;2023-03-02T00:29:03;24.07;;;10.50;;
7203;SDS011;3643;52.460;13.322;2023-03-02T00:31:32;20.63;;;11.07;;
7203;SDS011;3643;52.460;13.322;2023-03-02T00:34:01;20.67;;;10.30;;
7203;SDS011;3643;52.460;13.322;2023-03-02T00:36:30;20.00;;;10.77;;
7203;SDS011;3643;52.460;13.322;2023-03-02T00:38:59;18.20;;;9.80;;
7203;SDS011;3643;52.460;13.322;2023-03-02T00:41:30;19.13;;;9.83;;
7203;SDS011;3643;52.460;13.322;2023-03-02T00:43:58;17.97;;;9.47;;
7203;SDS011;3643;52.460;13.322;2023-03-02T00:46:26;19.27;;;9.43;;
7203;SDS011;3643;52.460;13.322;2023-03-02T00:48:55;18.20;;;9.13;;
7203;SDS011;3643;52.460;13.322;2023-03-02T00:51:24;20.87;;;9.60;;
7203;SDS011;3643;52.460;13.322;2023-03-02T00:53:53;16.73;;;8.93;;
7203;SDS011;3643;52.460;13.322;2023-03-02T00:56:21;15.13;;;8.97;;
7203;SDS011;3643;52.460;13.322;2023-03-02T00:58:51;20.67;;;10.07;;
7203;SDS011;3643;52.460;13.322;2023-03-02T01:01:20;18.77;;;9.67;;
7203;SDS011;3643;52.460;13.322;2023-03-02T01:03:48;20.17;;;9.17;;
7203;SDS011;3643;52.460;13.322;2023-03-02T01:06:18;20.27;;;9.97;;
7203;SDS011;3643;52.460;13.322;2023-03-02T01:08:48;19.13;;;10.67;;
7203;SDS011;3643;52.460;13.322;2023-03-02T01:11:18;16.27;;;9.37;;
7203;SDS011;3643;52.460;13.322;2023-03-02T01:13:48;20.60;;;9.60;;
7203;SDS011;3643;52.460;13.322;2023-03-02T01:16:18;19.03;;;10.10;;
7203;SDS011;3643;52.460;13.322;2023-03-02T01:18:47;16.23;;;9.60;;
7203;SDS011;3643;52.460;13.322;2023-03-02T01:21:15;18.37;;;10.57;;
7203;SDS011;3643;52.460;13.322;2023-03-02T01:23:43;19.23;;;10.40;;
7203;SDS011;3643;52.460;13.322;2023-03-02T01:26:12;19.57;;;10.87;;
7203;SDS011;3643;52.460;13.322;2023-03-02T01:28:40;19.50;;;10.67;;
7203;SDS011;3643;52.460;13.322;2023-03-02T01:31:10;18.73;;;9.90;;
7203;SDS011;3643;52.460;13.322;2023-03-02T01:33:38;17.57;;;10.50;;
7203;SDS011;3643;52.460;13.322;2023-03-02T01:36:07;17.03;;;10.53;;
7203;SDS011;3643;52.460;13.322;2023-03-02T01:38:35;18.23;;;10.93;;
7203;SDS011;3643;52.460;13.322;2023-03-02T01:41:03;18.30;;;9.90;;
7203;SDS011;3643;52.460;13.322;2023-03-02T01:43:32;17.47;;;10.03;;
7203;SDS011;3643;52.460;13.322;2023-03-02T01:46:01;16.93;;;10.30;;
7203;SDS011;3643;52.460;13.322;2023-03-02T01:48:41;16.87;;;9.77;;
7203;SDS011;3643;52.460;13.322;2023-03-02T01:51:14;19.10;;;9.97;;
7203;SDS011;3643;52.460;13.322;2023-03-02T01:53:45;18.40;;;10.27;;
7203;SDS011;3643;52.460;13.322;2023-03-02T01:56:15;18.37;;;9.53;;
7203;SDS011;3643;52.460;13.322;2023-03-02T01:58:47;20.80;;;10.57;;
7203;SDS011;3643;52.460;13.322;2023-03-02T02:01:19;17.20;;;9.60;;
7203;SDS011;3643;52.460;13.322;2023-03-02T02:03:50;16.33;;;9.60;;
7203;SDS011;3643;52.460;13.322;2023-03-02T02:06:21;17.90;;;9.77;;
7203;SDS011;3643;52.460;13.322;2023-03-02T02:08:53;15.37;;;9.57;;
7203;SDS011;3643;52.460;13.322;2023-03-02T02:11:24;16.30;;;9.80;;
7203;SDS011;3643;52.460;13.322;2023-03-02T02:13:54;18.73;;;10.00;;
7203;SDS011;3643;52.460;13.322;2023-03-02T02:16:25;16.00;;;9.57;;
7203;SDS011;3643;52.460;13.322;2023-03-02T02:18:57;16.20;;;9.50;;
7203;SDS011;3643;52.460;13.322;2023-03-02T02:21:26;14.60;;;9.17;;
7203;SDS011;3643;52.460;13.322;2023-03-02T02:24:00;17.50;;;9.97;;
7203;SDS011;3643;52.460;13.322;2023-03-02T02:26:36;15.00;;;9.70;;
7203;SDS011;3643;52.460;13.322;2023-03-02T02:29:09;17.43;;;9.87;;
7203;SDS011;3643;52.460;13.322;2023-03-02T02:31:41;16.67;;;9.27;;
7203;SDS011;3643;52.460;13.322;2023-03-02T02:34:15;18.13;;;9.53;;
7203;SDS011;3643;52.460;13.322;2023-03-02T02:36:48;17.03;;;9.77;;
7203;SDS011;3643;52.460;13.322;2023-03-02T02:39:21;17.13;;;9.50;;
7203;SDS011;3643;52.460;13.322;2023-03-02T02:41:56;17.80;;;9.53;;
7203;SDS011;3643;52.460;13.322;2023-03-02T02:44:27;20.00;;;10.77;;
7203;SDS011;3643;52.460;13.322;2023-03-02T02:46:55;16.07;;;9.80;;
7203;SDS011;3643;52.460;13.322;2023-03-02T02:49:26;18.53;;;10.10;;
7203;SDS011;3643;52.460;13.322;2023-03-02T02:51:58;16.67;;;9.83;;
7203;SDS011;3643;52.460;13.322;2023-03-02T02:54:28;15.27;;;9.67;;
7203;SDS011;3643;52.460;13.322;2023-03-02T02:57:00;16.57;;;9.63;;
7203;SDS011;3643;52.460;13.322;2023-03-02T02:59:31;17.03;;;10.10;;
7203;SDS011;3643;52.460;13.322;2023-03-02T03:02:02;15.87;;;9.50;;
7203;SDS011;3643;52.460;13.322;2023-03-02T03:04:31;18.50;;;10.30;;
7203;SDS011;3643;52.460;13.322;2023-03-02T03:07:01;16.87;;;10.17;;
7203;SDS011;3643;52.460;13.322;2023-03-02T03:09:31;15.03;;;9.30;;
7203;SDS011;3643;52.460;13.322;2023-03-02T03:12:02;15.43;;;9.10;;
7203;SDS011;3643;52.460;13.322;2023-03-02T03:14:37;14.70;;;9.43;;
7203;SDS011;3643;52.460;13.322;2023-03-02T03:17:07;17.10;;;10.07;;
7203;SDS011;3643;52.460;13.322;2023-03-02T03:19:40;15.37;;;9.43;;
7203;SDS011;3643;52.460;13.322;2023-03-02T03:22:09;17.77;;;10.30;;
7203;SDS011;3643;52.460;13.322;2023-03-02T03:24:40;16.43;;;9.77;;
7203;SDS011;3643;52.460;13.322;2023-03-02T03:27:13;15.63;;;9.60;;
7203;SDS011;3643;52.460;13.322;2023-03-02T03:29:43;16.37;;;9.87;;
7203;SDS011;3643;52.460;13.322;2023-03-02T03:32:13;16.13;;;10.27;;
7203;SDS011;3643;52.460;13.322;2023-03-02T03:34:43;17.63;;;10.07;;
7203;SDS011;3643;52.460;13.322;2023-03-02T03:37:13;17.77;;;10.03;;
7203;SDS011;3643;52.460;13.322;2023-03-02T03:39:44;21.23;;;11.07;;
7203;SDS011;3643;52.460;13.322;2023-03-02T03:42:14;19.67;;;10.70;;
7203;SDS011;3643;52.460;13.322;2023-03-02T03:44:42;18.33;;;10.40;;
7203;SDS011;3643;52.460;13.322;2023-03-02T03:47:11;18.40;;;10.60;;
7203;SDS011;3643;52.460;13.322;2023-03-02T03:49:39;17.90;;;10.10;;
7203;SDS011;3643;52.460;13.322;2023-03-02T03:52:08;16.23;;;9.87;;
7203;SDS011;3643;52.460;13.322;2023-03-02T03:54:36;18.33;;;10.60;;
7203;SDS011;3643;52.460;13.322;2023-03-02T03:57:04;17.87;;;10.27;;
7203;SDS011;3643;52.460;13.322;2023-03-02T03:59:34;17.67;;;10.03;;
7203;SDS011;3643;52.460;13.322;2023-03-02T04:02:02;20.30;;;10.93;;
7203;SDS011;3643;52.460;13.322;2023-03-02T04:04:32;18.00;;;10.97;;
7203;SDS011;3643;52.460;13.322;2023-03-02T04:07:01;18.60;;;10.37;;
7203;SDS011;3643;52.460;13.322;2023-03-02T04:09:30;19.00;;;10.87;;
7203;SDS011;3643;52.460;13.322;2023-03-02T04:12:03;18.37;;;10.80;;
7203;SDS011;3643;52.460;13.322;2023-03-02T04:14:32;18.50;;;10.40;;
7203;SDS011;3643;52.460;13.322;2023-03-02T04:17:03;17.27;;;10.13;;
7203;SDS011;3643;52.460;13.322;2023-03-02T04:19:33;17.53;;;9.33;;
7203;SDS011;3643;52.460;13.322;2023-03-02T04:22:02;17.10;;;10.03;;
7203;SDS011;3643;52.460;13.322;2023-03-02T04:24:31;16.93;;;9.83;;
7203;SDS011;3643;52.460;13.322;2023-03-02T04:27:00;17.63;;;10.47;;
7203;SDS011;3643;52.460;13.322;2023-03-02T04:29:29;17.53;;;10.20;;
7203;SDS011;3643;52.460;13.322;2023-03-02T04:31:59;19.13;;;10.77;;
7203;SDS011;3643;52.460;13.322;2023-03-02T04:34:28;17.47;;;9.63;;
7203;SDS011;3643;52.460;13.322;2023-03-02T04:36:56;19.23;;;10.73;;
7203;SDS011;3643;52.460;13.322;2023-03-02T04:39:30;18.07;;;10.33;;
7203;SDS011;3643;52.460;13.322;2023-03-02T04:42:11;18.90;;;10.17;;
7203;SDS011;3643;52.460;13.322;2023-03-02T04:44:39;14.20;;;9.57;;
7203;SDS011;3643;52.460;13.322;2023-03-02T04:47:09;15.77;;;9.37;;
7203;SDS011;3643;52.460;13.322;2023-03-02T04:49:38;15.90;;;9.90;;
7203;SDS011;3643;52.460;13.322;2023-03-02T04:52:07;20.10;;;10.20;;
7203;SDS011;3643;52.460;13.322;2023-03-02T04:54:35;18.07;;;10.57;;
7203;SDS011;3643;52.460;13.322;2023-03-02T04:57:04;17.77;;;10.70;;
7203;SDS011;3643;52.460;13.322;2023-03-02T04:59:36;16.23;;;9.80;;
7203;SDS011;3643;52.460;13.322;2023-03-02T05:02:05;18.83;;;10.53;;
7203;SDS011;3643;52.460;13.322;2023-03-02T05:04:35;18.93;;;10.67;;
7203;SDS011;3643;52.460;13.322;2023-03-02T05:07:03;19.80;;;10.97;;
7203;SDS011;3643;52.460;13.322;2023-03-02T05:09:31;21.63;;;11.30;;
7203;SDS011;3643;52.460;13.322;2023-03-02T05:12:00;20.20;;;10.93;;
7203;SDS011;3643;52.460;13.322;2023-03-02T05:14:28;20.37;;;11.50;;
7203;SDS011;3643;52.460;13.322;2023-03-02T05:16:57;22.17;;;12.03;;
7203;SDS011;3643;52.460;13.322;2023-03-02T05:19:25;18.10;;;10.73;;
7203;SDS011;3643;52.460;13.322;2023-03-02T05:21:54;19.07;;;12.00;;
7203;SDS011;3643;52.460;13.322;2023-03-02T05:24:22;19.73;;;12.17;;
7203;SDS011;3643;52.460;13.322;2023-03-02T05:26:51;20.53;;;12.03;;
7203;SDS011;3643;52.460;13.322;2023-03-02T05:29:19;24.20;;;13.37;;
7203;SDS011;3643;52.460;13.322;2023-03-02T05:31:47;22.57;;;12.67;;
7203;SDS011;3643;52.460;13.322;2023-03-02T05:34:16;27.60;;;13.40;;
7203;SDS011;3643;52.460;13.322;2023-03-02T05:36:45;25.67;;;14.07;;
7203;SDS011;3643;52.460;13.322;2023-03-02T05:39:14;25.57;;;13.80;;
7203;SDS011;3643;52.460;13.322;2023-03-02T05:41:42;24.83;;;13.60;;
7203;SDS011;3643;52.460;13.322;2023-03-02T05:44:10;31.70;;;14.47;;
7203;SDS011;3643;52.460;13.322;2023-03-02T05:46:39;29.03;;;16.13;;
7203;SDS011;3643;52.460;13.322;2023-03-02T05:49:07;30.47;;;15.87;;
7203;SDS011;3643;52.460;13.322;2023-03-02T05:51:35;29.90;;;16.90;;
7203;SDS011;3643;52.460;13.322;2023-03-02T05:54:04;27.80;;;15.70;;
7203;SDS011;3643;52.460;13.322;2023-03-02T05:56:33;26.40;;;15.37;;
7203;SDS011;3643;52.460;13.322;2023-03-02T05:59:01;27.10;;;14.70;;
7203;SDS011;3643;52.460;13.322;2023-03-02T06:01:29;29.20;;;15.37;;
7203;SDS011;3643;52.460;13.322;2023-03-02T06:03:58;33.43;;;17.23;;
7203;SDS011;3643;52.460;13.322;2023-03-02T06:06:26;27.13;;;15.77;;
7203;SDS011;3643;52.460;13.322;2023-03-02T06:08:54;27.93;;;16.43;;
7203;SDS011;3643;52.460;13.322;2023-03-02T06:11:22;30.30;;;16.50;;
7203;SDS011;3643;52.460;13.322;2023-03-02T06:13:52;31.50;;;16.73;;
7203;SDS011;3643;52.460;13.322;2023-03-02T06:16:20;39.00;;;19.80;;
7203;SDS011;3643;52.460;13.322;2023-03-02T06:18:48;37.20;;;18.90;;
7203;SDS011;3643;52.460;13.322;2023-03-02T06:21:16;37.80;;;20.17;;
7203;SDS011;3643;52.460;13.322;2023-03-02T06:23:44;37.87;;;18.50;;
7203;SDS011;3643;52.460;13.322;2023-03-02T06:26:12;39.27;;;19.97;;
7203;SDS011;3643;52.460;13.322;2023-03-02T06:28:40;38.80;;;19.60;;
7203;SDS011;3643;52.460;13.322;2023-03-02T06:31:19;37.00;;;19.63;;
7203;SDS011;3643;52.460;13.322;2023-03-02T06:33:48;40.97;;;21.67;;
7203;SDS011;3643;52.460;13.322;2023-03-02T06:36:16;41.90;;;21.03;;
7203;SDS011;3643;52.460;13.322;2023-03-02T06:38:44;43.97;;;22.03;;
7203;SDS011;3643;52.460;13.322;2023-03-02T06:41:12;40.37;;;19.43;;
7203;SDS011;3643;52.460;13.322;2023-03-02T06:43:40;37.87;;;19.80;;
7203;SDS011;3643;52.460;13.322;2023-03-02T06:46:09;37.93;;;19.93;;
7203;SDS011;3643;52.460;13.322;2023-03-02T06:48:38;30.57;;;18.13;;
7203;SDS011;3643;52.460;13.322;2023-03-02T06:51:06;30.03;;;17.10;;
7203;SDS011;3643;52.460;13.322;2023-03-02T06:53:36;25.47;;;15.07;;
7203;SDS011;3643;52.460;13.322;2023-03-02T06:56:04;25.40;;;14.57;;
7203;SDS011;3643;52.460;13.322;2023-03-02T06:58:33;24.87;;;15.83;;
7203;SDS011;3643;52.460;13.322;2023-03-02T07:01:02;28.10;;;15.13;;
7203;SDS011;3643;52.460;13.322;2023-03-02T07:03:30;23.43;;;14.20;;
7203;SDS011;3643;52.460;13.322;2023-03-02T07:05:59;22.10;;;13.70;;
7203;SDS011;3643;52.460;13.322;2023-03-02T07:08:28;25.03;;;15.23;;
7203;SDS011;3643;52.460;13.322;2023-03-02T07:10:56;24.57;;;15.63;;
7203;SDS011;3643;52.460;13.322;2023-03-02T07:13:24;27.07;;;14.13;;
7203;SDS011;3643;52.460;13.322;2023-03-02T07:15:52;26.93;;;15.67;;
7203;SDS011;3643;52.460;13.322;2023-03-02T07:18:21;24.40;;;15.13;;
7203;SDS011;3643;52.460;13.322;2023-03-02T07:20:49;21.70;;;13.50;;
7203;SDS011;3643;52.460;13.322;2023-03-02T07:23:18;24.23;;;13.83;;
7203;SDS011;3643;52.460;13.322;2023-03-02T07:25:47;26.63;;;15.60;;
7203;SDS011;3643;52.460;13.322;2023-03-02T07:28:15;25.77;;;15.87;;
7203;SDS011;3643;52.460;13.322;2023-03-02T07:30:43;27.77;;;15.37;;
7203;SDS011;3643;52.460;13.322;2023-03-02T07:33:11;26.80;;;15.20;;
7203;SDS011;3643;52.460;13.322;2023-03-02T07:35:40;31.37;;;17.03;;
7203;SDS011;3643;52.460;13.322;2023-03-02T07:38:08;26.00;;;15.20;;
7203;SDS011;3643;52.460;13.322;2023-03-02T07:40:40;28.10;;;16.47;;
7203;SDS011;3643;52.460;13.322;2023-03-02T07:43:08;27.70;;;16.10;;
7203;SDS011;3643;52.460;13.322;2023-03-02T07:45:37;29.87;;;16.37;;
7203;SDS011;3643;52.460;13.322;2023-03-02T07:48:05;35.10;;;17.63;;
7203;SDS011;3643;52.460;13.322;2023-03-02T07:50:33;32.90;;;17.23;;
7203;SDS011;3643;52.460;13.322;2023-03-02T07:53:02;31.87;;;15.83;;
7203;SDS011;3643;52.460;13.322;2023-03-02T07:55:30;34.97;;;16.83;;
7203;SDS011;3643;52.460;13.322;2023-03-02T07:58:00;34.53;;;16.57;;
7203;SDS011;3643;52.460;13.322;2023-03-02T08:00:28;32.70;;;17.13;;
7203;SDS011;3643;52.460;13.322;2023-03-02T08:02:56;29.30;;;16.07;;
7203;SDS011;3643;52.460;13.322;2023-03-02T08:05:24;33.30;;;17.03;;
7203;SDS011;3643;52.460;13.322;2023-03-02T08:07:52;38.03;;;17.97;;
7203;SDS011;3643;52.460;13.322;2023-03-02T08:10:20;30.43;;;16.77;;
7203;SDS011;3643;52.460;13.322;2023-03-02T08:12:49;32.77;;;17.40;;
7203;SDS011;3643;52.460;13.322;2023-03-02T08:15:18;33.87;;;16.37;;
7203;SDS011;3643;52.460;13.322;2023-03-02T08:17:47;34.20;;;17.43;;
7203;SDS011;3643;52.460;13.322;2023-03-02T08:20:15;34.40;;;17.03;;
7203;SDS011;3643;52.460;13.322;2023-03-02T08:22:43;32.80;;;16.53;;
7203;SDS011;3643;52.460;13.322;2023-03-02T08:25:11;31.70;;;17.37;;
7203;SDS011;3643;52.460;13.322;2023-03-02T08:27:39;34.70;;;17.43;;
7203;SDS011;3643;52.460;13.322;2023-03-02T08:30:08;36.77;;;18.27;;
7203;SDS011;3643;52.460;13.322;2023-03-02T08:32:39;32.13;;;16.40;;
7203;SDS011;3643;52.460;13.322;2023-03-02T08:35:07;33.07;;;16.73;;
7203;SDS011;3643;52.460;13.322;2023-03-02T08:37:36;31.07;;;17.00;;
7203;SDS011;3643;52.460;13.322;2023-03-02T08:40:04;33.60;;;16.73;;
7203;SDS011;3643;52.460;13.322;2023-03-02T08:42:33;38.83;;;18.67;;
7203;SDS011;3643;52.460;13.322;2023-03-02T08:45:02;32.77;;;17.43;;
7203;SDS011;3643;52.460;13.322;2023-03-02T08:47:31;45.50;;;22.73;;
7203;SDS011;3643;52.460;13.322;2023-03-02T08:50:00;77.73;;;35.93;;
7203;SDS011;3643;52.460;13.322;2023-03-02T08:52:28;41.00;;;19.67;;
7203;SDS011;3643;52.460;13.322;2023-03-02T08:54:58;36.50;;;17.57;;
7203;SDS011;3643;52.460;13.322;2023-03-02T08:57:29;32.83;;;16.90;;
7203;SDS011;3643;52.460;13.322;2023-03-02T08:59:57;39.70;;;19.10;;
7203;SDS011;3643;52.460;13.322;2023-03-02T09:02:25;41.03;;;19.17;;
7203;SDS011;3643;52.460;13.322;2023-03-02T09:04:53;38.97;;;18.33;;
7203;SDS011;3643;52.460;13.322;2023-03-02T09:07:23;43.23;;;19.40;;
7203;SDS011;3643;52.460;13.322;2023-03-02T09:09:51;41.03;;;18.93;;
7203;SDS011;3643;52.460;13.322;2023-03-02T09:12:19;39.03;;;18.13;;
7203;SDS011;3643;52.460;13.322;2023-03-02T09:14:47;43.03;;;19.83;;
7203;SDS011;3643;52.460;13.322;2023-03-02T09:17:16;38.43;;;20.47;;
7203;SDS011;3643;52.460;13.322;2023-03-02T09:19:44;48.93;;;22.00;;
7203;SDS011;3643;52.460;13.322;2023-03-02T09:22:12;40.57;;;19.20;;
7203;SDS011;3643;52.460;13.322;2023-03-02T09:24:42;43.37;;;20.67;;
7203;SDS011;3643;52.460;13.322;2023-03-02T09:27:10;42.03;;;20.57;;
7203;SDS011;3643;52.460;13.322;2023-03-02T09:29:38;43.67;;;20.13;;
7203;SDS011;3643;52.460;13.322;2023-03-02T09:32:06;39.67;;;19.17;;
7203;SDS011;3643;52.460;13.322;2023-03-02T09:34:34;45.57;;;18.83;;
7203;SDS011;3643;52.460;13.322;2023-03-02T09:37:03;45.33;;;20.17;;
7203;SDS011;3643;52.460;13.322;2023-03-02T09:39:31;39.10;;;19.33;;
7203;SDS011;3643;52.460;13.322;2023-03-02T09:45:14;39.33;;;19.57;;
7203;SDS011;3643;52.460;13.322;2023-03-02T09:47:52;45.90;;;21.40;;
7203;SDS011;3643;52.460;13.322;2023-03-02T09:50:31;44.90;;;21.13;;
7203;SDS011;3643;52.460;13.322;2023-03-02T09:55:55;41.63;;;20.73;;
7203;SDS011;3643;52.460;13.322;2023-03-02T09:58:28;41.77;;;19.80;;
7203;SDS011;3643;52.460;13.322;2023-03-02T10:01:02;43.47;;;20.60;;
7203;SDS011;3643;52.460;13.322;2023-03-02T10:03:37;42.07;;;20.73;;
7203;SDS011;3643;52.460;13.322;2023-03-02T10:06:11;42.40;;;21.07;;
7203;SDS011;3643;52.460;13.322;2023-03-02T10:08:39;48.67;;;21.83;;
7203;SDS011;3643;52.460;13.322;2023-03-02T10:11:11;41.73;;;21.17;;
7203;SDS011;3643;52.460;13.322;2023-03-02T10:13:47;43.00;;;22.13;;
7203;SDS011;3643;52.460;13.322;2023-03-02T10:16:22;40.40;;;21.20;;
7203;SDS011;3643;52.460;13.322;2023-03-02T10:19:00;42.97;;;21.60;;
7203;SDS011;3643;52.460;13.322;2023-03-02T10:21:35;40.53;;;21.00;;
7203;SDS011;3643;52.460;13.322;2023-03-02T10:24:12;47.10;;;22.73;;
7203;SDS011;3643;52.460;13.322;2023-03-02T10:26:48;41.30;;;20.03;;
7203;SDS011;3643;52.460;13.322;2023-03-02T10:29:28;38.87;;;20.83;;
7203;SDS011;3643;52.460;13.322;2023-03-02T10:32:12;41.43;;;20.90;;
7203;SDS011;3643;52.460;13.322;2023-03-02T10:34:44;80.03;;;38.27;;
7203;SDS011;3643;52.460;13.322;2023-03-02T10:37:16;43.63;;;20.10;;
7203;SDS011;3643;52.460;13.322;2023-03-02T10:39:47;40.20;;;19.83;;
7203;SDS011;3643;52.460;13.322;2023-03-02T10:42:15;36.53;;;19.77;;
7203;SDS011;3643;52.460;13.322;2023-03-02T10:44:49;34.67;;;18.27;;
7203;SDS011;3643;52.460;13.322;2023-03-02T10:47:20;33.63;;;18.43;;
7203;SDS011;3643;52.460;13.322;2023-03-02T10:49:50;33.50;;;18.43;;
7203;SDS011;3643;52.460;13.322;2023-03-02T10:52:20;36.37;;;17.23;;
7203;SDS011;3643;52.460;13.322;2023-03-02T10:54:49;34.37;;;18.67;;
7203;SDS011;3643;52.460;13.322;2023-03-02T10:57:30;32.63;;;17.47;;
7203;SDS011;3643;52.460;13.322;2023-03-02T11:00:12;36.53;;;17.80;;
7203;SDS011;3643;52.460;13.322;2023-03-02T11:02:49;32.60;;;16.60;;
7203;SDS011;3643;52.460;13.322;2023-03-02T11:05:20;31.80;;;16.97;;
7203;SDS011;3643;52.460;13.322;2023-03-02T11:08:00;31.53;;;17.83;;
7203;SDS011;3643;52.460;13.322;2023-03-02T11:10:31;28.37;;;16.30;;
7203;SDS011;3643;52.460;13.322;2023-03-02T11:13:02;24.23;;;15.80;;
7203;SDS011;3643;52.460;13.322;2023-03-02T11:15:44;25.77;;;15.50;;
7203;SDS011;3643;52.460;13.322;2023-03-02T11:18:18;28.67;;;15.83;;
7203;SDS011;3643;52.460;13.322;2023-03-02T11:20:52;27.20;;;15.07;;
7203;SDS011;3643;52.460;13.322;2023-03-02T11:23:25;26.60;;;15.47;;
7203;SDS011;3643;52.460;13.322;2023-03-02T11:26:04;27.40;;;15.20;;
7203;SDS011;3643;52.460;13.322;2023-03-02T11:28:40;29.63;;;14.93;;
7203;SDS011;3643;52.460;13.322;2023-03-02T11:31:16;28.37;;;16.23;;
7203;SDS011;3643;52.460;13.322;2023-03-02T11:33:59;24.37;;;15.03;;
7203;SDS011;3643;52.460;13.322;2023-03-02T11:36:44;27.50;;;14.77;;
7203;SDS011;3643;52.460;13.322;2023-03-02T11:39:19;24.60;;;14.53;;
7203;SDS011;3643;52.460;13.322;2023-03-02T11:41:52;31.60;;;15.53;;
7203;SDS011;3643;52.460;13.322;2023-03-02T11:44:20;24.93;;;14.93;;
7203;SDS011;3643;52.460;13.322;2023-03-02T11:46:56;28.33;;;15.70;;
7203;SDS011;3643;52.460;13.322;2023-03-02T11:49:32;23.57;;;14.67;;
7203;SDS011;3643;52.460;13.322;2023-03-02T11:52:04;27.23;;;15.00;;
7203;SDS011;3643;52.460;13.322;2023-03-02T11:54:42;24.87;;;14.77;;
7203;SDS011;3643;52.460;13.322;2023-03-02T11:57:16;21.07;;;13.60;;
7203;SDS011;3643;52.460;13.322;2023-03-02T11:59:49;25.47;;;15.10;;
7203;SDS011;3643;52.460;13.322;2023-03-02T12:02:23;24.00;;;14.23;;
7203;SDS011;3643;52.460;13.322;2023-03-02T12:05:02;23.40;;;13.43;;
7203;SDS011;3643;52.460;13.322;2023-03-02T12:07:33;22.50;;;13.43;;
7203;SDS011;3643;52.460;13.322;2023-03-02T12:10:03;22.23;;;13.27;;
7203;SDS011;3643;52.460;13.322;2023-03-02T12:12:35;22.80;;;14.77;;
7203;SDS011;3643;52.460;13.322;2023-03-02T12:15:24;25.57;;;15.33;;
7203;SDS011;3643;52.460;13.322;2023-03-02T12:18:23;25.77;;;14.67;;
7203;SDS011;3643;52.460;13.322;2023-03-02T12:21:12;24.93;;;14.07;;
7203;SDS011;3643;52.460;13.322;2023-03-02T12:23:55;23.77;;;13.97;;
7203;SDS011;3643;52.460;13.322;2023-03-02T12:26:30;22.53;;;13.50;;
7203;SDS011;3643;52.460;13.322;2023-03-02T12:29:03;22.67;;;13.80;;
7203;SDS011;3643;52.460;13.322;2023-03-02T12:31:41;25.77;;;14.83;;
7203;SDS011;3643;52.460;13.322;2023-03-02T12:34:24;26.23;;;13.70;;
7203;SDS011;3643;52.460;13.322;2023-03-02T12:37:02;23.93;;;14.57;;
7203;SDS011;3643;52.460;13.322;2023-03-02T12:39:42;23.20;;;14.23;;
7203;SDS011;3643;52.460;13.322;2023-03-02T12:42:48;23.17;;;13.07;;
7203;SDS011;3643;52.460;13.322;2023-03-02T12:45:26;20.93;;;12.23;;
7203;SDS011;3643;52.460;13.322;2023-03-02T12:48:14;27.30;;;14.13;;
7203;SDS011;3643;52.460;13.322;2023-03-02T12:50:53;22.87;;;13.30;;
7203;SDS011;3643;52.460;13.322;2023-03-02T12:53:26;22.43;;;13.47;;
7203;SDS011;3643;52.460;13.322;2023-03-02T12:55:55;22.03;;;12.53;;
7203;SDS011;3643;52.460;13.322;2023-03-02T12:58:24;21.57;;;12.97;;
7203;SDS011;3643;52.460;13.322;2023-03-02T13:00:55;22.70;;;13.23;;
7203;SDS011;3643;52.460;13.322;2023-03-02T13:03:24;22.70;;;13.40;;
7203;SDS011;3643;52.460;13.322;2023-03-02T13:06:00;25.13;;;13.17;;
7203;SDS011;3643;52.460;13.322;2023-03-02T13:08:30;22.93;;;14.53;;
7203;SDS011;3643;52.460;13.322;2023-03-02T13:10:59;25.70;;;15.03;;
7203;SDS011;3643;52.460;13.322;2023-03-02T13:13:33;23.87;;;13.13;;
7203;SDS011;3643;52.460;13.322;2023-03-02T13:16:05;22.47;;;13.83;;
7203;SDS011;3643;52.460;13.322;2023-03-02T13:18:44;25.07;;;14.40;;
7203;SDS011;3643;52.460;13.322;2023-03-02T13:21:16;22.07;;;13.63;;
7203;SDS011;3643;52.460;13.322;2023-03-02T13:23:47;22.97;;;13.27;;
7203;SDS011;3643;52.460;13.322;2023-03-02T13:26:23;22.13;;;13.17;;
7203;SDS011;3643;52.460;13.322;2023-03-02T13:29:00;20.70;;;12.80;;
7203;SDS011;3643;52.460;13.322;2023-03-02T13:31:30;22.47;;;13.33;;
7203;SDS011;3643;52.460;13.322;2023-03-02T13:33:59;22.57;;;13.87;;
7203;SDS011;3643;52.460;13.322;2023-03-02T13:36:32;22.87;;;13.90;;
7203;SDS011;3643;52.460;13.322;2023-03-02T13:39:03;26.83;;;14.33;;
7203;SDS011;3643;52.460;13.322;2023-03-02T13:41:34;25.17;;;15.10;;
7203;SDS011;3643;52.460;13.322;2023-03-02T13:44:15;21.70;;;13.90;;
7203;SDS011;3643;52.460;13.322;2023-03-02T13:46:45;22.47;;;13.87;;
7203;SDS011;3643;52.460;13.322;2023-03-02T13:49:23;21.13;;;12.93;;
7203;SDS011;3643;52.460;13.322;2023-03-02T13:51:57;23.53;;;14.10;;
7203;SDS011;3643;52.460;13.322;2023-03-02T13:54:32;22.90;;;14.00;;
7203;SDS011;3643;52.460;13.322;2023-03-02T13:57:02;23.40;;;13.83;;
7203;SDS011;3643;52.460;13.322;2023-03-02T13:59:33;23.73;;;14.57;;
7203;SDS011;3643;52.460;13.322;2023-03-02T14:02:05;23.93;;;13.33;;
7203;SDS011;3643;52.460;13.322;2023-03-02T14:04:45;19.87;;;13.03;;
7203;SDS011;3643;52.460;13.322;2023-03-02T14:07:16;20.60;;;13.03;;
7203;SDS011;3643;52.460;13.322;2023-03-02T14:09:44;19.67;;;12.80;;
7203;SDS011;3643;52.460;13.322;2023-03-02T14:12:18;23.07;;;13.37;;
7203;SDS011;3643;52.460;13.322;2023-03-02T14:14:51;19.90;;;11.97;;
7203;SDS011;3643;52.460;13.322;2023-03-02T14:17:23;22.07;;;13.37;;
7203;SDS011;3643;52.460;13.322;2023-03-02T14:19:52;25.13;;;13.13;;
7203;SDS011;3643;52.460;13.322;2023-03-02T14:22:23;20.43;;;12.20;;
7203;SDS011;3643;52.460;13.322;2023-03-02T14:24:55;19.07;;;12.33;;
7203;SDS011;3643;52.460;13.322;2023-03-02T14:27:23;18.07;;;11.53;;
7203;SDS011;3643;52.460;13.322;2023-03-02T14:29:56;20.47;;;11.23;;
7203;SDS011;3643;52.460;13.322;2023-03-02T14:32:25;18.67;;;12.50;;
7203;SDS011;3643;52.460;13.322;2023-03-02T14:34:54;19.23;;;12.20;;
7203;SDS011;3643;52.460;13.322;2023-03-02T14:37:25;21.77;;;13.57;;
7203;SDS011;3643;52.460;13.322;2023-03-02T14:39:55;21.50;;;13.33;;
7203;SDS011;3643;52.460;13.322;2023-03-02T14:42:24;18.70;;;12.27;;
7203;SDS011;3643;52.460;13.322;2023-03-02T14:44:53;17.80;;;11.60;;
7203;SDS011;3643;52.460;13.322;2023-03-02T14:47:21;19.60;;;11.27;;
7203;SDS011;3643;52.460;13.322;2023-03-02T14:49:49;17.37;;;11.37;;
7203;SDS011;3643;52.460;13.322;2023-03-02T14:52:19;20.60;;;10.57;;
7203;SDS011;3643;52.460;13.322;2023-03-02T14:54:55;15.07;;;10.13;;
7203;SDS011;3643;52.460;13.322;2023-03-02T14:57:28;17.50;;;10.50;;
7203;SDS011;3643;52.460;13.322;2023-03-02T14:59:59;17.27;;;11.07;;
7203;SDS011;3643;52.460;13.322;2023-03-02T15:02:28;15.00;;;10.40;;
7203;SDS011;3643;52.460;13.322;2023-03-02T15:04:57;15.87;;;10.60;;